createdAt,value
2023-03-27T00:01:18.046Z,38.45
2023-03-27T00:03:49.560Z,38.92
2023-03-27T00:06:18.682Z,38.50
2023-03-27T00:08:47.218Z,39.14
2023-03-27T00:11:15.440Z,40.07
2023-03-27T00:13:49.958Z,40.18
2023-03-27T00:16:18.801Z,40.19
2023-03-27T00:18:46.009Z,40.20
2023-03-27T00:21:12.810Z,39.96
2023-03-27T00:23:39.369Z,39.62
2023-03-27T00:26:06.382Z,39.49
2023-03-27T00:28:33.002Z,40.48
2023-03-27T00:31:00.267Z,40.28
2023-03-27T00:33:27.356Z,40.75
2023-03-27T00:35:54.564Z,41.25
2023-03-27T00:38:21.578Z,41.39
2023-03-27T00:40:50.737Z,41.29
2023-03-27T00:43:23.132Z,40.66
2023-03-27T00:45:52.767Z,40.16
2023-03-27T00:48:20.758Z,40.56
2023-03-27T00:50:49.674Z,40.50
2023-03-27T00:53:20.710Z,41.56
2023-03-27T00:55:51.706Z,42.60
2023-03-27T00:58:27.447Z,43.96
2023-03-27T01:00:56.463Z,42.87
2023-03-27T01:03:26.553Z,41.71
2023-03-27T01:05:56.045Z,41.17
2023-03-27T01:08:24.563Z,40.68
2023-03-27T01:11:04.645Z,40.65
2023-03-27T01:13:59.221Z,40.25
2023-03-27T01:16:33.810Z,39.88
2023-03-27T01:19:21.334Z,39.41
2023-03-27T01:21:56.790Z,39.74
2023-03-27T01:24:51.336Z,40.38
2023-03-27T01:27:39.545Z,40.18
2023-03-27T01:30:26.045Z,39.29
2023-03-27T01:33:20.466Z,40.82
2023-03-27T01:36:02.293Z,40.62
2023-03-27T01:38:43.997Z,41.24
2023-03-27T01:41:28.130Z,40.94
2023-03-27T01:44:00.806Z,40.44
2023-03-27T01:46:41.799Z,40.45
2023-03-27T01:49:13.569Z,39.99
2023-03-27T01:51:46.294Z,40.50
2023-03-27T01:54:18.894Z,40.35
2023-03-27T01:56:53.955Z,40.22
2023-03-27T01:59:24.831Z,40.19
2023-03-27T02:01:56.464Z,40.11
2023-03-27T02:04:33.471Z,42.49
2023-03-27T02:07:05.990Z,41.22
2023-03-27T02:09:41.454Z,41.99
2023-03-27T02:12:13.408Z,42.00
2023-03-27T02:14:54.187Z,42.53
2023-03-27T02:17:26.371Z,41.70
2023-03-27T02:20:00.870Z,41.93
2023-03-27T02:22:37.281Z,42.74
2023-03-27T02:25:25.268Z,42.29
2023-03-27T02:28:16.346Z,41.73
2023-03-27T02:31:06.239Z,41.63
2023-03-27T02:34:02.247Z,43.39
2023-03-27T02:36:44.568Z,43.04
2023-03-27T02:39:22.654Z,42.71
2023-03-27T02:42:02.379Z,45.81
2023-03-27T02:44:31.945Z,48.32
2023-03-27T02:47:07.682Z,46.06
2023-03-27T02:49:46.294Z,44.12
2023-03-27T02:52:27.372Z,43.62
2023-03-27T02:55:06.044Z,43.33
2023-03-27T02:57:38.807Z,43.72
2023-03-27T03:00:14.267Z,42.96
2023-03-27T03:02:41.766Z,43.02
2023-03-27T03:05:17.915Z,42.93
2023-03-27T03:07:46.261Z,42.73
2023-03-27T03:10:13.577Z,42.63
2023-03-27T03:12:40.227Z,42.92
2023-03-27T03:15:11.316Z,42.68
2023-03-27T03:17:38.081Z,42.30
2023-03-27T03:20:05.834Z,42.13
2023-03-27T03:22:32.439Z,43.10
2023-03-27T03:24:59.049Z,44.34
2023-03-27T03:27:25.691Z,44.50
2023-03-27T03:29:53.205Z,44.62
2023-03-27T03:32:19.860Z,45.78
2023-03-27T03:34:49.237Z,45.12
2023-03-27T03:37:15.995Z,46.47
2023-03-27T03:39:43.012Z,45.46
2023-03-27T03:42:09.688Z,44.66
2023-03-27T03:44:49.172Z,44.63
2023-03-27T03:47:15.759Z,44.66
2023-03-27T03:49:42.699Z,44.75
2023-03-27T03:52:09.295Z,44.47
2023-03-27T03:54:38.704Z,44.42
2023-03-27T03:57:05.624Z,43.49
2023-03-27T03:59:32.339Z,43.21
2023-03-27T04:01:58.988Z,42.60
2023-03-27T04:04:25.597Z,42.21
2023-03-27T04:06:53.114Z,42.00
2023-03-27T04:09:22.277Z,42.60
2023-03-27T04:11:48.917Z,42.89
2023-03-27T04:14:15.676Z,42.94
2023-03-27T04:16:42.281Z,42.40
2023-03-27T04:19:09.055Z,42.37
2023-03-27T04:21:36.512Z,43.20
2023-03-27T04:24:03.171Z,42.93
2023-03-27T04:26:30.011Z,43.11
2023-03-27T04:28:56.748Z,42.77
2023-03-27T04:31:23.420Z,42.75
2023-03-27T04:33:52.113Z,42.84
2023-03-27T04:36:19.681Z,41.93
2023-03-27T04:38:48.133Z,51.57
2023-03-27T04:41:14.843Z,43.81
2023-03-27T04:43:41.904Z,43.38
2023-03-27T04:46:09.190Z,42.46
2023-03-27T04:48:38.472Z,42.27
2023-03-27T04:51:08.371Z,42.14
2023-03-27T04:53:36.466Z,41.95
2023-03-27T04:56:03.892Z,42.02
2023-03-27T04:58:30.608Z,41.75
2023-03-27T05:00:58.004Z,41.97
2023-03-27T05:03:25.946Z,43.71
2023-03-27T05:05:52.819Z,44.60
2023-03-27T05:08:19.856Z,45.07
2023-03-27T05:10:47.140Z,47.77
2023-03-27T05:13:14.015Z,45.93
2023-03-27T05:15:41.166Z,45.16
2023-03-27T05:18:09.242Z,44.96
2023-03-27T05:20:37.000Z,44.38
2023-03-27T05:23:04.266Z,42.79
2023-03-27T05:25:32.699Z,42.78
2023-03-27T05:28:00.610Z,42.29
2023-03-27T05:30:28.246Z,42.50
2023-03-27T05:32:54.957Z,42.79
2023-03-27T05:35:24.000Z,42.84
2023-03-27T05:37:53.299Z,44.75
2023-03-27T05:40:22.530Z,43.25
2023-03-27T05:42:50.417Z,42.98
2023-03-27T05:45:18.039Z,42.32
2023-03-27T05:47:48.153Z,42.35
2023-03-27T05:50:16.553Z,42.67
2023-03-27T05:52:43.425Z,43.19
2023-03-27T05:55:10.509Z,43.84
2023-03-27T05:57:41.553Z,42.92
2023-03-27T06:00:14.037Z,42.26
2023-03-27T06:02:45.024Z,41.87
2023-03-27T06:05:16.533Z,41.06
2023-03-27T06:07:43.907Z,39.71
2023-03-27T06:10:14.284Z,38.77
2023-03-27T06:12:42.837Z,38.71
2023-03-27T06:15:10.187Z,38.86
2023-03-27T06:17:42.290Z,38.89
2023-03-27T06:20:15.435Z,40.04
2023-03-27T06:22:47.147Z,40.44
2023-03-27T06:25:14.497Z,41.07
2023-03-27T06:27:48.597Z,40.71
2023-03-27T06:30:18.131Z,40.34
2023-03-27T06:32:49.440Z,39.23
2023-03-27T06:35:17.376Z,39.17
2023-03-27T06:37:50.737Z,40.73
2023-03-27T06:40:23.162Z,40.39
2023-03-27T06:42:51.028Z,40.99
2023-03-27T06:45:17.652Z,39.78
2023-03-27T06:47:54.792Z,40.06
2023-03-27T06:50:25.495Z,41.37
2023-03-27T06:52:52.173Z,41.32
2023-03-27T06:55:21.793Z,40.66
2023-03-27T06:57:51.184Z,39.75
2023-03-27T07:00:20.334Z,40.94
2023-03-27T07:02:47.195Z,40.95
2023-03-27T07:05:15.638Z,39.85
2023-03-27T07:07:43.135Z,39.46
2023-03-27T07:10:11.021Z,39.03
2023-03-27T07:12:38.315Z,39.66
2023-03-27T07:15:06.322Z,38.59
2023-03-27T07:17:45.857Z,37.84
2023-03-27T07:20:15.164Z,37.38
2023-03-27T07:22:43.151Z,36.17
2023-03-27T07:25:11.328Z,37.32
2023-03-27T07:27:38.835Z,36.22
2023-03-27T07:30:08.188Z,35.57
2023-03-27T07:32:37.896Z,35.74
2023-03-27T07:35:05.530Z,34.96
2023-03-27T07:37:32.383Z,35.21
2023-03-27T07:39:58.999Z,34.75
2023-03-27T07:42:26.108Z,34.77
2023-03-27T07:44:52.969Z,34.97
2023-03-27T07:47:20.059Z,35.12
2023-03-27T07:49:46.698Z,35.84
2023-03-27T07:52:14.729Z,36.01
2023-03-27T07:54:43.190Z,35.90
2023-03-27T07:57:11.368Z,35.82
2023-03-27T07:59:38.293Z,35.82
2023-03-27T08:02:05.603Z,35.54
2023-03-27T08:04:32.246Z,35.81
2023-03-27T08:06:59.368Z,35.78
2023-03-27T08:09:27.147Z,35.37
2023-03-27T08:11:53.720Z,35.45
2023-03-27T08:14:20.362Z,35.51
2023-03-27T08:16:47.093Z,35.93
2023-03-27T08:19:14.187Z,36.38
2023-03-27T08:21:40.859Z,37.68
2023-03-27T08:24:08.234Z,38.30
2023-03-27T08:26:36.340Z,37.42
2023-03-27T08:29:03.686Z,38.03
2023-03-27T08:31:31.429Z,37.57
2023-03-27T08:33:58.118Z,37.22
2023-03-27T08:36:24.783Z,38.21
2023-03-27T08:38:51.592Z,37.59
2023-03-27T08:41:38.677Z,37.98
2023-03-27T08:44:11.168Z,37.53
2023-03-27T08:46:42.970Z,38.23
2023-03-27T08:49:21.270Z,38.71
2023-03-27T08:52:23.901Z,39.50
2023-03-27T08:54:58.354Z,37.01
2023-03-27T08:57:28.379Z,35.47
2023-03-27T08:59:58.919Z,36.79
2023-03-27T09:02:34.369Z,36.59
2023-03-27T09:05:15.542Z,36.22
2023-03-27T09:07:43.563Z,35.74
2023-03-27T09:10:31.670Z,34.68
2023-03-27T09:13:07.858Z,35.44
2023-03-27T09:15:40.867Z,35.09
2023-03-27T09:18:21.936Z,34.86
2023-03-27T09:20:53.538Z,33.97
2023-03-27T09:23:37.145Z,35.11
2023-03-27T09:26:17.316Z,43.49
2023-03-27T09:29:24.952Z,44.57
2023-03-27T09:31:57.255Z,45.09
2023-03-27T09:34:34.627Z,44.88
2023-03-27T09:37:02.545Z,45.16
2023-03-27T09:39:34.009Z,44.88
2023-03-27T09:42:09.208Z,45.98
2023-03-27T09:44:40.634Z,47.80
2023-03-27T09:47:15.472Z,46.60
2023-03-27T09:50:35.160Z,47.28
2023-03-27T09:53:13.525Z,47.85
2023-03-27T09:56:03.609Z,47.52
2023-03-27T09:58:40.859Z,46.57
2023-03-27T10:01:15.738Z,47.11
2023-03-27T10:04:01.215Z,47.57
2023-03-27T10:06:38.781Z,46.30
2023-03-27T10:09:35.733Z,45.49
2023-03-27T10:12:18.293Z,47.32
2023-03-27T10:14:47.699Z,46.18
2023-03-27T10:17:23.509Z,48.04
2023-03-27T10:19:55.158Z,47.69
2023-03-27T10:22:38.358Z,49.64
2023-03-27T10:25:15.729Z,49.16
2023-03-27T10:27:43.840Z,49.89
2023-03-27T10:30:27.404Z,48.78
2023-03-27T10:32:54.265Z,45.14
2023-03-27T10:35:27.154Z,44.60
2023-03-27T10:37:54.801Z,43.48
2023-03-27T10:40:27.696Z,46.48
2023-03-27T10:43:02.251Z,45.47
2023-03-27T10:45:31.471Z,45.94
2023-03-27T10:48:02.270Z,43.55
2023-03-27T10:50:35.967Z,44.21
2023-03-27T10:53:21.816Z,44.01
2023-03-27T10:56:02.384Z,43.03
2023-03-27T10:58:47.319Z,42.56
2023-03-27T11:01:28.925Z,42.34
2023-03-27T11:04:00.062Z,43.07
2023-03-27T11:06:33.475Z,40.91
2023-03-27T11:09:06.275Z,41.12
2023-03-27T11:11:37.990Z,42.38
2023-03-27T11:14:17.601Z,42.07
2023-03-27T11:16:57.715Z,42.91
2023-03-27T11:19:37.800Z,42.30
2023-03-27T11:22:11.493Z,42.29
2023-03-27T11:25:18.558Z,44.78
2023-03-27T11:28:18.435Z,46.91
2023-03-27T11:31:14.953Z,46.62
2023-03-27T11:33:52.562Z,49.25
2023-03-27T11:36:24.494Z,49.51
2023-03-27T11:39:11.274Z,53.94
2023-03-27T11:41:37.844Z,53.83
2023-03-27T11:44:04.852Z,55.09
2023-03-27T11:47:08.490Z,57.68
2023-03-27T11:50:29.582Z,61.43
2023-03-27T11:53:05.072Z,63.57
2023-03-27T11:55:56.595Z,68.51
2023-03-27T11:58:38.198Z,70.79
2023-03-27T12:01:14.461Z,73.15
2023-03-27T12:03:45.628Z,72.56
2023-03-27T12:06:29.346Z,75.14
2023-03-27T12:09:02.228Z,72.81
2023-03-27T12:11:29.903Z,75.20
2023-03-27T12:14:17.680Z,74.25
2023-03-27T12:17:08.699Z,74.18
2023-03-27T12:19:53.748Z,75.04
2023-03-27T12:22:41.875Z,73.51
2023-03-27T12:25:40.343Z,74.83
2023-03-27T12:28:24.155Z,73.06
2023-03-27T12:31:19.399Z,71.70
2023-03-27T12:34:17.967Z,71.93
2023-03-27T12:36:48.233Z,73.35
2023-03-27T12:39:21.180Z,72.90
2023-03-27T12:41:47.770Z,71.94
2023-03-27T12:44:18.686Z,71.33
2023-03-27T12:47:09.711Z,69.28
2023-03-27T12:49:46.336Z,68.52
2023-03-27T12:52:15.151Z,65.97
2023-03-27T12:55:13.913Z,65.62
2023-03-27T12:57:44.856Z,69.10
2023-03-27T13:00:23.894Z,68.24
2023-03-27T13:03:27.600Z,68.30
2023-03-27T13:06:12.709Z,66.07
2023-03-27T13:09:03.067Z,63.33
2023-03-27T13:12:19.182Z,63.28
2023-03-27T13:15:13.358Z,64.63
2023-03-27T13:17:48.638Z,66.09
2023-03-27T13:20:34.962Z,68.17
2023-03-27T13:23:29.235Z,67.04
2023-03-27T13:26:08.806Z,68.15
2023-03-27T13:28:42.337Z,66.58
2023-03-27T13:31:12.298Z,62.68
2023-03-27T13:33:47.534Z,63.02
2023-03-27T13:36:20.019Z,59.56
2023-03-27T13:38:52.702Z,61.24
2023-03-27T13:41:44.197Z,61.19
2023-03-27T13:44:43.101Z,60.45
2023-03-27T13:47:34.259Z,61.82
2023-03-27T13:50:19.205Z,61.47
2023-03-27T13:53:13.552Z,61.08
2023-03-27T13:56:01.783Z,57.41
2023-03-27T13:58:53.682Z,56.58
2023-03-27T14:01:34.271Z,55.34
2023-03-27T14:04:17.838Z,53.25
2023-03-27T14:07:02.668Z,51.98
2023-03-27T14:09:41.253Z,51.32
2023-03-27T14:12:14.239Z,52.33
2023-03-27T14:15:00.532Z,51.82
2023-03-27T14:18:05.891Z,50.44
2023-03-27T14:20:55.616Z,51.12
2023-03-27T14:23:29.878Z,51.53
2023-03-27T14:26:03.700Z,48.88
2023-03-27T14:28:51.631Z,49.23
2023-03-27T14:31:19.622Z,49.26
2023-03-27T14:33:57.708Z,50.04
2023-03-27T14:36:26.487Z,49.31
2023-03-27T14:38:53.205Z,49.35
2023-03-27T14:41:26.674Z,48.96
2023-03-27T14:43:54.361Z,48.75
2023-03-27T14:46:23.552Z,49.72
2023-03-27T14:48:55.990Z,49.55
2023-03-27T14:51:42.153Z,50.15
2023-03-27T14:54:18.280Z,50.76
2023-03-27T14:56:52.646Z,50.99
2023-03-27T14:59:22.834Z,48.31
2023-03-27T15:01:51.024Z,48.14
2023-03-27T15:04:19.325Z,52.41
2023-03-27T15:06:46.024Z,59.03
2023-03-27T15:09:15.745Z,58.43
2023-03-27T15:11:53.565Z,53.49
2023-03-27T15:14:31.808Z,55.32
2023-03-27T15:17:19.351Z,51.58
2023-03-27T15:19:56.719Z,49.17
2023-03-27T15:22:33.123Z,49.26
2023-03-27T15:25:08.787Z,61.39
2023-03-27T15:27:42.696Z,59.43
2023-03-27T15:30:28.211Z,53.67
2023-03-27T15:32:57.333Z,56.16
2023-03-27T15:35:42.339Z,58.10
2023-03-27T15:38:14.186Z,58.27
2023-03-27T15:40:46.327Z,64.20
2023-03-27T15:43:12.969Z,67.42
2023-03-27T15:45:56.826Z,66.25
2023-03-27T15:48:48.336Z,66.31
2023-03-27T15:51:21.152Z,64.08
2023-03-27T15:53:49.657Z,63.59
2023-03-27T15:56:29.963Z,61.76
2023-03-27T15:59:02.603Z,62.12
2023-03-27T16:01:39.322Z,64.59
2023-03-27T16:04:15.268Z,66.94
2023-03-27T16:07:05.217Z,70.63
2023-03-27T16:09:47.268Z,70.33
2023-03-27T16:12:16.214Z,73.42
2023-03-27T16:14:48.939Z,74.57
2023-03-27T16:17:20.620Z,72.11
2023-03-27T16:19:53.567Z,68.22
2023-03-27T16:22:34.688Z,66.69
2023-03-27T16:25:06.890Z,65.93
2023-03-27T16:27:54.999Z,64.31
2023-03-27T16:30:30.702Z,64.30
2023-03-27T16:32:57.578Z,62.63
2023-03-27T16:35:24.273Z,62.46
2023-03-27T16:37:50.918Z,61.94
2023-03-27T16:40:17.481Z,62.46
2023-03-27T16:42:44.199Z,63.33
2023-03-27T16:45:11.245Z,65.99
2023-03-27T16:47:38.021Z,65.54
2023-03-27T16:50:10.920Z,65.45
2023-03-27T16:52:38.461Z,66.87
2023-03-27T16:55:07.486Z,66.64
2023-03-27T16:57:34.612Z,68.59
2023-03-27T17:00:02.256Z,72.90
2023-03-27T17:02:30.759Z,70.03
2023-03-27T17:04:58.609Z,66.95
2023-03-27T17:07:27.473Z,67.51
2023-03-27T17:09:54.762Z,64.31
2023-03-27T17:12:21.511Z,67.42
2023-03-27T17:14:48.245Z,75.51
2023-03-27T17:17:14.862Z,72.89
2023-03-27T17:19:41.451Z,67.67
2023-03-27T17:22:07.987Z,62.66
2023-03-27T17:24:45.755Z,60.44
2023-03-27T17:27:20.423Z,61.92
2023-03-27T17:29:47.024Z,60.19
2023-03-27T17:32:13.631Z,60.14
2023-03-27T17:34:41.570Z,60.06
2023-03-27T17:37:08.197Z,59.81
2023-03-27T17:39:34.747Z,59.43
2023-03-27T17:42:02.184Z,58.52
2023-03-27T17:44:28.745Z,58.16
2023-03-27T17:46:55.574Z,61.48
2023-03-27T17:49:22.294Z,61.17
2023-03-27T17:51:48.909Z,61.06
2023-03-27T17:54:15.551Z,60.75
2023-03-27T17:56:42.250Z,59.96
2023-03-27T17:59:10.123Z,59.00
2023-03-27T18:01:36.830Z,58.81
2023-03-27T18:04:03.941Z,58.67
2023-03-27T18:06:30.677Z,58.52
2023-03-27T18:08:58.606Z,58.61
2023-03-27T18:11:30.093Z,59.54
2023-03-27T18:13:57.606Z,64.30
2023-03-27T18:16:25.093Z,66.58
2023-03-27T18:18:55.567Z,70.23
2023-03-27T18:21:23.197Z,76.26
2023-03-27T18:23:53.471Z,78.49
2023-03-27T18:26:21.450Z,78.12
2023-03-27T18:28:48.979Z,77.35
2023-03-27T18:31:17.854Z,77.54
2023-03-27T18:33:44.874Z,76.91
2023-03-27T18:36:12.063Z,76.79
2023-03-27T18:38:40.345Z,77.00
2023-03-27T18:41:08.080Z,75.86
2023-03-27T18:43:34.830Z,76.83
2023-03-27T18:46:05.783Z,75.89
2023-03-27T18:48:33.686Z,77.08
2023-03-27T18:51:03.147Z,76.95
2023-03-27T18:53:30.321Z,77.24
2023-03-27T18:55:58.620Z,76.11
2023-03-27T18:58:27.798Z,76.09
2023-03-27T19:00:57.493Z,74.68
2023-03-27T19:03:26.715Z,72.55
2023-03-27T19:05:53.950Z,73.42
2023-03-27T19:08:21.749Z,72.87
2023-03-27T19:10:48.936Z,72.24
2023-03-27T19:13:16.060Z,70.15
2023-03-27T19:15:43.134Z,70.62
2023-03-27T19:18:10.211Z,71.55
2023-03-27T19:20:36.879Z,71.93
2023-03-27T19:23:03.994Z,71.39
2023-03-27T19:25:34.131Z,70.68
2023-03-27T19:28:05.891Z,72.23
2023-03-27T19:30:33.660Z,74.01
2023-03-27T19:33:00.527Z,71.30
2023-03-27T19:35:27.645Z,71.81
2023-03-27T19:37:54.656Z,71.36
2023-03-27T19:40:25.530Z,73.24
2023-03-27T19:42:52.534Z,71.52
2023-03-27T19:45:19.366Z,69.97
2023-03-27T19:47:46.014Z,70.81
2023-03-27T19:50:14.638Z,69.35
2023-03-27T19:52:42.517Z,69.93
2023-03-27T19:55:09.411Z,68.79
2023-03-27T19:57:36.119Z,68.47
2023-03-27T20:00:09.514Z,68.94
2023-03-27T20:02:36.973Z,70.78
2023-03-27T20:05:03.834Z,71.49
2023-03-27T20:07:30.491Z,71.30
2023-03-27T20:09:57.081Z,71.76
2023-03-27T20:12:24.967Z,71.05
2023-03-27T20:15:02.837Z,71.29
2023-03-27T20:17:37.324Z,70.00
2023-03-27T20:20:06.093Z,71.55
2023-03-27T20:22:38.588Z,70.82
2023-03-27T20:25:10.018Z,69.98
2023-03-27T20:27:36.655Z,69.83
2023-03-27T20:30:03.376Z,71.02
2023-03-27T20:32:30.116Z,69.79
2023-03-27T20:34:56.748Z,68.33
2023-03-27T20:37:27.200Z,69.05
2023-03-27T20:39:54.358Z,68.42
2023-03-27T20:42:23.211Z,70.47
2023-03-27T20:44:58.875Z,69.60
2023-03-27T20:47:25.610Z,71.29
2023-03-27T20:49:52.384Z,70.39
2023-03-27T20:52:19.913Z,69.93
2023-03-27T20:54:48.002Z,70.51
2023-03-27T20:57:14.822Z,71.13
2023-03-27T20:59:41.499Z,72.18
2023-03-27T21:02:15.861Z,72.44
2023-03-27T21:04:42.499Z,73.08
2023-03-27T21:07:09.765Z,71.24
2023-03-27T21:09:38.239Z,70.03
2023-03-27T21:12:05.176Z,68.25
2023-03-27T21:14:33.892Z,68.48
2023-03-27T21:17:00.579Z,68.69
2023-03-27T21:19:27.438Z,69.31
2023-03-27T21:21:54.306Z,69.16
2023-03-27T21:24:21.146Z,71.44
2023-03-27T21:26:47.891Z,71.53
2023-03-27T21:29:15.498Z,70.03
2023-03-27T21:31:43.156Z,68.33
2023-03-27T21:34:12.356Z,69.82
2023-03-27T21:36:39.061Z,71.43
2023-03-27T21:39:05.907Z,71.95
2023-03-27T21:41:32.742Z,71.71
2023-03-27T21:43:59.375Z,72.74
2023-03-27T21:46:26.197Z,71.75
2023-03-27T21:48:53.198Z,71.16
2023-03-27T21:51:19.950Z,71.79
2023-03-27T21:53:46.895Z,73.57
2023-03-27T21:56:13.826Z,73.13
2023-03-27T21:58:40.602Z,74.22
2023-03-27T22:01:07.566Z,75.55
2023-03-27T22:03:34.168Z,76.71
2023-03-27T22:06:11.771Z,75.94
2023-03-27T22:08:39.921Z,74.52
2023-03-27T22:11:06.806Z,74.33
2023-03-27T22:13:36.281Z,75.16
2023-03-27T22:16:11.973Z,75.94
2023-03-27T22:18:39.734Z,75.87
2023-03-27T22:21:22.045Z,75.01
2023-03-27T22:23:50.977Z,77.83
2023-03-27T22:26:23.361Z,78.92
2023-03-27T22:28:52.514Z,79.62
2023-03-27T22:31:20.310Z,80.79
2023-03-27T22:33:47.871Z,81.74
2023-03-27T22:36:14.526Z,80.16
2023-03-27T22:38:41.596Z,79.26
2023-03-27T22:41:10.367Z,78.81
2023-03-27T22:43:37.067Z,80.14
2023-03-27T22:46:09.057Z,80.68
2023-03-27T22:48:35.884Z,80.81
2023-03-27T22:51:02.709Z,80.99
2023-03-27T22:53:31.914Z,79.58
2023-03-27T22:56:00.024Z,80.25
2023-03-27T22:58:27.439Z,80.94
2023-03-27T23:00:55.450Z,80.59
2023-03-27T23:03:23.341Z,80.19
2023-03-27T23:05:51.081Z,79.56
2023-03-27T23:08:19.920Z,79.50
2023-03-27T23:10:47.075Z,79.53
2023-03-27T23:13:13.807Z,79.54
2023-03-27T23:15:40.418Z,79.58
2023-03-27T23:18:07.049Z,79.26
2023-03-27T23:20:33.734Z,77.35
2023-03-27T23:23:00.557Z,78.28
2023-03-27T23:25:27.192Z,77.81
2023-03-27T23:27:53.805Z,77.69
2023-03-27T23:30:20.536Z,76.04
2023-03-27T23:32:47.178Z,75.94
2023-03-27T23:35:14.116Z,74.19
2023-03-27T23:37:40.971Z,71.37
2023-03-27T23:40:08.429Z,72.71
2023-03-27T23:42:35.029Z,71.82
2023-03-27T23:45:02.273Z,70.64
2023-03-27T23:47:28.863Z,70.21
2023-03-27T23:49:55.454Z,70.81
2023-03-27T23:52:22.076Z,69.88
2023-03-27T23:54:48.668Z,67.83
2023-03-27T23:57:15.383Z,68.29
2023-03-27T23:59:41.969Z,68.98
